KLGU/LGU METAR and TAF weather

Enter ICAO airport designator
Station Type Date Time Source
KLGU METAR 2021/04/18 02:51 UTC NOAA

KLGU 180251Z AUTO 00000KT 10SM CLR 07/M08 A3021 RMK AO2 SLP229 T00721078 53004


Station Type Date Time Source
KLGU Decoded METAR 2021/04/18 02:51 UTC NOAA

LOGAN CACHE AIRPORT, UT, United States (KLGU) 41-47N 111-51W 1355M
Apr 17, 2021 - 10:51 PM EDT / 2021.04.18 0251 UTC
Wind: Calm:0
Visibility: 10 mile(s):0
Sky conditions: clear
Temperature: 45.0 F (7.2 C)
Dew Point: 18.0 F (-7.8 C)
Relative Humidity: 33%
Pressure (altimeter): 30.21 in. Hg (1023 hPa)
Pressure tendency: 0.01 inches (0.4 hPa) higher than three hours ago
ob: KLGU 180251Z AUTO 00000KT 10SM CLR 07/M08 A3021 RMK AO2 SLP229 T00721078 53004
cycle: 3

Station Type Date Time Source
KLGU TAF 2021/04/17 18:34 UTC NOAA

TAF KLGU 171732Z 1718/1818 08007KT P6SM FEW060
FM172200 01008KT P6SM FEW060
FM180200 VRB04KT P6SM SKC

Example: see airport list